createdAt,value
2023-01-10T00:01:42.912Z,17.53
2023-01-10T00:04:10.846Z,20.87
2023-01-10T00:06:38.950Z,16.37
2023-01-10T00:09:06.955Z,17.23
2023-01-10T00:11:54.101Z,18.37
2023-01-10T00:14:22.321Z,16.70
2023-01-10T00:16:50.201Z,21.40
2023-01-10T00:19:18.082Z,16.87
2023-01-10T00:21:45.995Z,19.10
2023-01-10T00:24:20.032Z,18.17
2023-01-10T00:26:52.093Z,20.03
2023-01-10T00:29:20.964Z,18.17
2023-01-10T00:31:49.029Z,19.33
2023-01-10T00:34:17.224Z,16.40
2023-01-10T00:36:45.915Z,16.00
2023-01-10T00:39:14.536Z,16.70
2023-01-10T00:42:00.130Z,18.67
2023-01-10T00:44:29.349Z,19.60
2023-01-10T00:46:57.239Z,13.90
2023-01-10T00:49:25.158Z,20.27
2023-01-10T00:51:53.202Z,18.97
2023-01-10T00:54:21.038Z,14.90
2023-01-10T00:56:48.930Z,16.37
2023-01-10T00:59:16.755Z,19.70
2023-01-10T01:01:46.349Z,19.23
2023-01-10T01:04:17.915Z,18.03
2023-01-10T01:06:47.600Z,15.77
2023-01-10T01:09:16.056Z,14.77
2023-01-10T01:11:44.353Z,15.93
2023-01-10T01:14:12.338Z,19.37
2023-01-10T01:16:40.336Z,19.10
2023-01-10T01:19:09.630Z,16.80
2023-01-10T01:21:37.572Z,16.80
2023-01-10T01:24:05.689Z,18.17
2023-01-10T01:26:35.327Z,15.77
2023-01-10T01:29:03.182Z,17.00
2023-01-10T01:31:31.166Z,19.27
2023-01-10T01:33:59.628Z,20.43
2023-01-10T01:36:28.854Z,12.40
2023-01-10T01:38:56.670Z,22.00
2023-01-10T01:41:42.002Z,12.90
2023-01-10T01:44:16.920Z,16.33
2023-01-10T01:46:48.651Z,15.63
2023-01-10T01:49:21.557Z,15.53
2023-01-10T01:51:56.405Z,13.17
2023-01-10T01:54:24.343Z,14.70
2023-01-10T01:56:55.949Z,14.77
2023-01-10T01:59:27.612Z,16.43
2023-01-10T02:01:58.870Z,16.03
2023-01-10T02:04:31.507Z,14.57
2023-01-10T02:07:00.751Z,15.47
2023-01-10T02:09:36.015Z,12.20
2023-01-10T02:12:04.222Z,14.00
2023-01-10T02:14:34.719Z,14.20
2023-01-10T02:17:02.615Z,16.87
2023-01-10T02:19:44.404Z,14.10
2023-01-10T02:22:51.761Z,16.37
2023-01-10T02:25:47.886Z,15.80
2023-01-10T02:28:53.327Z,14.77
2023-01-10T02:31:43.819Z,15.97
2023-01-10T02:34:21.074Z,15.07
2023-01-10T02:36:56.009Z,13.10
2023-01-10T02:39:30.120Z,17.70
2023-01-10T02:42:03.177Z,10.03
2023-01-10T02:44:36.834Z,13.13
2023-01-10T02:47:05.322Z,16.47
2023-01-10T02:49:44.232Z,11.77
2023-01-10T02:52:14.570Z,11.77
2023-01-10T02:54:43.050Z,15.33
2023-01-10T02:57:45.294Z,13.27
2023-01-10T03:00:31.019Z,13.60
2023-01-10T03:03:09.987Z,10.10
2023-01-10T03:05:53.920Z,11.37
2023-01-10T03:08:31.298Z,11.63
2023-01-10T03:11:01.683Z,12.77
2023-01-10T03:13:36.055Z,13.33
2023-01-10T03:16:08.128Z,10.43
2023-01-10T03:18:40.309Z,14.47
2023-01-10T03:21:11.336Z,9.23
2023-01-10T03:23:40.198Z,14.70
2023-01-10T03:26:10.682Z,12.77
2023-01-10T03:28:46.694Z,13.37
2023-01-10T03:31:19.590Z,15.00
2023-01-10T03:33:49.967Z,11.53
2023-01-10T03:36:31.183Z,11.20
2023-01-10T03:39:07.407Z,13.33
2023-01-10T03:41:41.766Z,18.20
2023-01-10T03:44:34.796Z,12.03
2023-01-10T03:47:09.369Z,15.17
2023-01-10T03:49:40.425Z,12.17
2023-01-10T03:52:14.724Z,14.70
2023-01-10T03:54:44.132Z,12.33
2023-01-10T03:57:18.261Z,10.27
2023-01-10T03:59:46.423Z,16.00
2023-01-10T04:02:14.421Z,14.63
2023-01-10T04:04:42.366Z,13.60
2023-01-10T04:07:11.670Z,15.63
2023-01-10T04:09:39.644Z,13.53
2023-01-10T04:12:08.014Z,11.87
2023-01-10T04:14:35.851Z,14.27
2023-01-10T04:17:04.188Z,13.67
2023-01-10T04:19:32.048Z,14.47
2023-01-10T04:21:59.845Z,14.83
2023-01-10T04:24:29.179Z,12.10
2023-01-10T04:26:57.020Z,12.23
2023-01-10T04:29:24.981Z,10.17
2023-01-10T04:31:52.897Z,11.77
2023-01-10T04:34:21.775Z,11.90
2023-01-10T04:36:50.720Z,12.93
2023-01-10T04:39:18.777Z,11.20
2023-01-10T04:41:48.096Z,9.97
2023-01-10T04:44:16.002Z,10.90
2023-01-10T04:46:44.045Z,11.63
2023-01-10T04:49:12.620Z,15.07
2023-01-10T04:51:40.681Z,11.57
2023-01-10T04:54:08.537Z,12.00
2023-01-10T04:56:36.577Z,12.03
2023-01-10T04:59:06.605Z,13.97
2023-01-10T05:01:35.469Z,11.53
2023-01-10T05:04:04.040Z,12.37
2023-01-10T05:06:31.933Z,11.57
2023-01-10T05:09:00.188Z,15.47
2023-01-10T05:11:28.147Z,11.60
2023-01-10T05:13:56.334Z,14.50
2023-01-10T05:16:26.136Z,11.47
2023-01-10T05:18:54.019Z,13.53
2023-01-10T05:21:21.936Z,10.13
2023-01-10T05:23:50.028Z,10.87
2023-01-10T05:26:19.461Z,13.83
2023-01-10T05:28:47.872Z,10.23
2023-01-10T05:31:17.875Z,17.27
2023-01-10T05:33:48.346Z,14.10
2023-01-10T05:36:16.575Z,12.77
2023-01-10T05:38:44.761Z,10.23
2023-01-10T05:41:12.857Z,12.60
2023-01-10T05:43:40.703Z,11.57
2023-01-10T05:46:08.826Z,9.23
2023-01-10T05:48:37.009Z,13.07
2023-01-10T05:51:06.841Z,12.53
2023-01-10T05:53:34.728Z,17.00
2023-01-10T05:56:03.547Z,13.00
2023-01-10T05:58:31.733Z,10.27
2023-01-10T06:01:00.074Z,12.17
2023-01-10T06:03:28.502Z,11.63
2023-01-10T06:05:57.482Z,15.00
2023-01-10T06:08:26.792Z,11.87
2023-01-10T06:10:54.657Z,11.07
2023-01-10T06:13:22.738Z,16.67
2023-01-10T06:15:50.903Z,17.07
2023-01-10T06:18:18.715Z,12.67
2023-01-10T06:20:46.833Z,10.40
2023-01-10T06:23:15.363Z,16.13
2023-01-10T06:25:44.855Z,13.03
2023-01-10T06:28:14.597Z,16.77
2023-01-10T06:30:44.326Z,11.33
2023-01-10T06:33:13.048Z,9.60
2023-01-10T06:35:41.230Z,13.10
2023-01-10T06:38:09.237Z,13.70
2023-01-10T06:40:37.061Z,12.00
2023-01-10T06:43:06.343Z,14.07
2023-01-10T06:45:34.761Z,15.00
2023-01-10T06:48:02.648Z,16.30
2023-01-10T06:50:31.801Z,13.73
2023-01-10T06:53:00.615Z,13.13
2023-01-10T06:55:29.386Z,15.80
2023-01-10T06:57:57.624Z,12.67
2023-01-10T07:00:28.494Z,13.37
2023-01-10T07:02:57.569Z,11.97
2023-01-10T07:05:25.574Z,15.80
2023-01-10T07:07:53.812Z,14.43
2023-01-10T07:10:21.634Z,19.43
2023-01-10T07:12:49.468Z,11.80
2023-01-10T07:15:17.328Z,11.27
2023-01-10T07:17:46.529Z,14.20
2023-01-10T07:20:14.468Z,14.73
2023-01-10T07:22:42.431Z,18.93
2023-01-10T07:25:10.603Z,16.67
2023-01-10T07:27:39.964Z,14.13
2023-01-10T07:30:09.866Z,11.93
2023-01-10T07:32:37.706Z,14.70
2023-01-10T07:35:07.338Z,15.13
2023-01-10T07:37:35.727Z,20.03
2023-01-10T07:40:03.565Z,13.87
2023-01-10T07:42:32.604Z,15.17
2023-01-10T07:45:00.570Z,15.73
2023-01-10T07:47:29.154Z,16.90
2023-01-10T07:49:57.090Z,15.47
2023-01-10T07:52:26.574Z,16.43
2023-01-10T07:54:54.647Z,14.83
2023-01-10T07:57:30.022Z,15.00
2023-01-10T07:59:58.680Z,15.23
2023-01-10T08:02:26.699Z,15.20
2023-01-10T08:04:54.829Z,12.93
2023-01-10T08:07:22.839Z,19.20
2023-01-10T08:09:52.092Z,12.50
2023-01-10T08:12:19.897Z,18.20
2023-01-10T08:14:48.011Z,16.93
2023-01-10T08:17:15.911Z,18.33
2023-01-10T08:19:44.102Z,16.47
2023-01-10T08:22:12.395Z,17.33
2023-01-10T08:24:40.580Z,18.20
2023-01-10T08:27:09.904Z,16.73
2023-01-10T08:29:38.200Z,18.10
2023-01-10T08:32:06.425Z,17.47
2023-01-10T08:34:34.313Z,17.60
2023-01-10T08:37:02.213Z,21.53
2023-01-10T08:39:31.473Z,16.93
2023-01-10T08:41:59.340Z,16.63
2023-01-10T08:44:28.826Z,14.90
2023-01-10T08:46:56.784Z,16.77
2023-01-10T08:49:24.818Z,15.63
2023-01-10T08:51:52.817Z,21.67
2023-01-10T08:54:20.787Z,15.67
2023-01-10T08:56:48.684Z,20.53
2023-01-10T08:59:17.874Z,14.93
2023-01-10T09:01:47.236Z,23.03
2023-01-10T09:04:15.182Z,17.23
2023-01-10T09:06:43.041Z,16.83
2023-01-10T09:09:11.020Z,15.30
2023-01-10T09:11:41.873Z,17.40
2023-01-10T09:14:09.988Z,16.00
2023-01-10T09:16:37.857Z,18.87
2023-01-10T09:19:07.258Z,15.63
2023-01-10T09:21:35.177Z,24.60
2023-01-10T09:24:03.019Z,13.43
2023-01-10T09:26:32.011Z,16.30
2023-01-10T09:28:59.821Z,16.23
2023-01-10T09:31:27.674Z,19.73
2023-01-10T09:33:55.701Z,21.63
2023-01-10T09:36:24.901Z,14.90
2023-01-10T09:38:52.704Z,18.13
2023-01-10T09:41:44.756Z,15.30
2023-01-10T09:44:20.139Z,17.00
2023-01-10T09:46:58.481Z,15.23
2023-01-10T09:49:45.209Z,17.97
2023-01-10T09:52:23.430Z,20.70
2023-01-10T09:54:53.396Z,16.53
2023-01-10T09:57:23.593Z,16.87
2023-01-10T09:59:54.450Z,17.53
2023-01-10T10:02:30.003Z,19.53
2023-01-10T10:05:12.000Z,18.47
2023-01-10T10:07:41.699Z,15.93
2023-01-10T10:10:16.409Z,20.50
2023-01-10T10:12:50.100Z,16.60
2023-01-10T10:15:31.504Z,17.30
2023-01-10T10:18:11.639Z,14.03
2023-01-10T10:20:51.508Z,19.33
2023-01-10T10:23:34.422Z,15.53
2023-01-10T10:26:07.058Z,19.20
2023-01-10T10:29:10.076Z,22.87
2023-01-10T10:32:08.345Z,22.13
2023-01-10T10:34:41.529Z,17.00
2023-01-10T10:37:15.569Z,19.90
2023-01-10T10:39:51.093Z,18.03
2023-01-10T10:42:20.256Z,16.17
2023-01-10T10:44:54.289Z,18.53
2023-01-10T10:47:24.762Z,34.80
2023-01-10T10:49:59.743Z,22.63
2023-01-10T10:52:32.138Z,38.80
2023-01-10T10:55:02.410Z,28.30
2023-01-10T10:57:38.757Z,23.17
2023-01-10T11:00:15.729Z,21.00
2023-01-10T11:02:48.315Z,28.70
2023-01-10T11:05:21.430Z,20.87
2023-01-10T11:07:51.994Z,21.07
2023-01-10T11:10:40.498Z,20.57
2023-01-10T11:13:33.101Z,21.27
2023-01-10T11:16:01.897Z,16.40
2023-01-10T11:18:31.825Z,14.03
2023-01-10T11:21:03.304Z,16.03
2023-01-10T11:23:42.312Z,17.63
2023-01-10T11:26:24.478Z,19.23
2023-01-10T11:28:53.595Z,18.63
2023-01-10T11:31:28.900Z,20.13
2023-01-10T11:33:58.113Z,19.60
2023-01-10T11:36:26.591Z,19.20
2023-01-10T11:39:02.521Z,20.30
2023-01-10T11:41:34.382Z,25.73
2023-01-10T11:44:18.162Z,19.23
2023-01-10T11:46:47.254Z,22.07
2023-01-10T11:49:19.872Z,18.93
2023-01-10T11:51:50.328Z,18.23
2023-01-10T11:54:22.354Z,21.80
2023-01-10T11:56:57.916Z,23.57
2023-01-10T11:59:27.465Z,17.37
2023-01-10T12:01:58.917Z,21.27
2023-01-10T12:04:30.291Z,20.77
2023-01-10T12:07:01.518Z,16.40
2023-01-10T12:09:42.538Z,24.53
2023-01-10T12:12:22.995Z,23.50
2023-01-10T12:14:52.213Z,20.47
2023-01-10T12:17:27.300Z,20.23
2023-01-10T12:19:58.575Z,22.93
2023-01-10T12:22:32.117Z,21.77
2023-01-10T12:25:01.658Z,21.47
2023-01-10T12:27:32.018Z,22.00
2023-01-10T12:30:06.784Z,18.23
2023-01-10T12:32:40.566Z,21.50
2023-01-10T12:35:16.772Z,20.10
2023-01-10T12:37:51.475Z,17.40
2023-01-10T12:40:27.937Z,18.43
2023-01-10T12:43:21.994Z,20.47
2023-01-10T12:45:53.392Z,20.97
2023-01-10T12:48:28.011Z,21.60
2023-01-10T12:51:00.591Z,20.37
2023-01-10T12:53:33.016Z,18.73
2023-01-10T12:56:06.055Z,19.63
2023-01-10T12:58:43.060Z,22.40
2023-01-10T13:01:16.132Z,18.40
2023-01-10T13:03:46.643Z,18.17
2023-01-10T13:06:22.271Z,22.17
2023-01-10T13:08:51.284Z,24.33
2023-01-10T13:11:23.802Z,21.90
2023-01-10T13:13:59.454Z,21.97
2023-01-10T13:16:37.607Z,18.90
2023-01-10T13:19:23.332Z,20.23
2023-01-10T13:21:52.494Z,18.63
2023-01-10T13:24:24.045Z,19.30
2023-01-10T13:26:54.164Z,19.33
2023-01-10T13:29:26.173Z,18.00
2023-01-10T13:31:58.137Z,22.70
2023-01-10T13:34:33.429Z,18.10
2023-01-10T13:37:06.570Z,19.00
2023-01-10T13:39:40.857Z,19.13
2023-01-10T13:42:45.995Z,16.53
2023-01-10T13:45:34.138Z,19.20
2023-01-10T13:48:24.327Z,18.87
2023-01-10T13:51:08.836Z,17.33
2023-01-10T13:53:46.924Z,21.60
2023-01-10T13:56:34.648Z,18.13
2023-01-10T13:59:21.329Z,16.50
2023-01-10T14:02:12.065Z,18.13
2023-01-10T14:04:46.631Z,20.67
2023-01-10T14:07:24.896Z,16.97
2023-01-10T14:09:59.846Z,16.20
2023-01-10T14:12:34.100Z,24.67
2023-01-10T14:15:08.276Z,17.63
2023-01-10T14:17:39.088Z,16.50
2023-01-10T14:20:22.971Z,20.13
2023-01-10T14:23:05.140Z,21.97
2023-01-10T14:25:35.524Z,17.43
2023-01-10T14:28:04.520Z,17.67
2023-01-10T14:30:35.245Z,19.23
2023-01-10T14:33:14.966Z,17.37
2023-01-10T14:35:46.353Z,13.77
2023-01-10T14:38:20.922Z,15.70
2023-01-10T14:40:52.325Z,17.53
2023-01-10T14:43:24.240Z,19.43
2023-01-10T14:45:59.436Z,15.97
2023-01-10T14:48:32.518Z,18.00
2023-01-10T14:51:11.557Z,18.47
2023-01-10T14:53:39.884Z,16.07
2023-01-10T14:56:19.517Z,16.87
2023-01-10T14:58:47.512Z,16.10
2023-01-10T15:01:23.342Z,16.90
2023-01-10T15:03:53.804Z,16.93
2023-01-10T15:06:21.954Z,17.13
2023-01-10T15:09:01.037Z,17.67
2023-01-10T15:11:31.615Z,16.67
2023-01-10T15:14:05.203Z,16.07
2023-01-10T15:16:34.760Z,16.13
2023-01-10T15:19:04.318Z,16.43
2023-01-10T15:21:32.190Z,16.97
2023-01-10T15:24:00.070Z,21.50
2023-01-10T15:26:33.357Z,18.03
2023-01-10T15:29:08.340Z,17.67
2023-01-10T15:31:38.571Z,19.07
2023-01-10T15:34:11.588Z,17.30
2023-01-10T15:36:44.706Z,19.43
2023-01-10T15:39:21.070Z,20.97
2023-01-10T15:41:49.309Z,14.93
2023-01-10T15:44:25.773Z,18.70
2023-01-10T15:46:57.768Z,16.97
2023-01-10T15:49:28.209Z,19.37
2023-01-10T15:51:56.668Z,18.60
2023-01-10T15:54:34.778Z,15.43
2023-01-10T15:57:08.038Z,19.97
2023-01-10T15:59:39.844Z,17.37
2023-01-10T16:02:22.652Z,17.63
2023-01-10T16:04:54.940Z,18.37
2023-01-10T16:07:27.536Z,18.73
2023-01-10T16:09:58.922Z,20.30
2023-01-10T16:12:47.350Z,23.03
2023-01-10T16:15:21.749Z,17.87
2023-01-10T16:17:50.716Z,15.33
2023-01-10T16:20:22.497Z,18.97
2023-01-10T16:22:51.134Z,19.43
2023-01-10T16:25:21.919Z,17.33
2023-01-10T16:27:49.756Z,16.27
2023-01-10T16:30:29.262Z,19.53
2023-01-10T16:32:59.064Z,20.30
2023-01-10T16:35:28.609Z,21.60
2023-01-10T16:37:58.501Z,17.60
2023-01-10T16:40:29.632Z,18.47
2023-01-10T16:43:15.296Z,17.77
2023-01-10T16:45:43.364Z,19.73
2023-01-10T16:48:11.918Z,21.70
2023-01-10T16:50:42.202Z,23.00
2023-01-10T16:53:12.848Z,21.63
2023-01-10T16:55:42.989Z,19.97
2023-01-10T16:58:12.198Z,21.40
2023-01-10T17:00:42.224Z,21.80
2023-01-10T17:03:15.422Z,19.23
2023-01-10T17:05:44.952Z,23.67
2023-01-10T17:08:17.761Z,22.60
2023-01-10T17:10:48.030Z,20.97
2023-01-10T17:13:22.335Z,23.83
2023-01-10T17:15:50.361Z,21.23
2023-01-10T17:18:19.799Z,16.43
2023-01-10T17:20:49.093Z,19.67
2023-01-10T17:23:18.326Z,26.60
2023-01-10T17:25:47.371Z,26.53
2023-01-10T17:28:19.578Z,25.07
2023-01-10T17:30:47.577Z,24.20
2023-01-10T17:33:15.625Z,24.10
2023-01-10T17:35:45.199Z,20.83
2023-01-10T17:38:16.276Z,20.20
2023-01-10T17:40:45.863Z,19.47
2023-01-10T17:43:14.694Z,23.77
2023-01-10T17:45:43.016Z,23.43
2023-01-10T17:48:13.009Z,21.47
2023-01-10T17:50:40.888Z,22.90
2023-01-10T17:53:08.930Z,25.70
2023-01-10T17:55:38.817Z,24.33
2023-01-10T17:58:06.628Z,24.43
2023-01-10T18:00:36.136Z,23.27
2023-01-10T18:03:04.455Z,22.20
2023-01-10T18:05:34.186Z,25.00
2023-01-10T18:08:02.398Z,23.17
2023-01-10T18:10:30.781Z,21.83
2023-01-10T18:13:03.456Z,21.13
2023-01-10T18:15:32.006Z,23.50
2023-01-10T18:17:59.989Z,23.47
2023-01-10T18:20:28.072Z,22.00
2023-01-10T18:23:13.589Z,20.83
2023-01-10T18:25:41.652Z,25.63
2023-01-10T18:28:10.866Z,18.20
2023-01-10T18:30:40.587Z,19.23
2023-01-10T18:33:08.481Z,21.57
2023-01-10T18:35:36.333Z,20.13
2023-01-10T18:38:04.237Z,25.07
2023-01-10T18:40:34.571Z,21.03
2023-01-10T18:43:02.629Z,18.20
2023-01-10T18:45:32.008Z,20.23
2023-01-10T18:48:01.691Z,22.13
2023-01-10T18:50:29.481Z,26.07
2023-01-10T18:52:57.815Z,18.87
2023-01-10T18:55:25.918Z,21.13
2023-01-10T18:57:53.748Z,18.87
2023-01-10T19:00:22.206Z,19.23
2023-01-10T19:02:53.111Z,22.17
2023-01-10T19:05:21.294Z,22.37
2023-01-10T19:07:50.006Z,20.83
2023-01-10T19:10:19.023Z,16.70
2023-01-10T19:12:46.913Z,18.07
2023-01-10T19:15:18.691Z,18.93
2023-01-10T19:17:46.719Z,21.13
2023-01-10T19:20:16.191Z,16.00
2023-01-10T19:22:46.190Z,16.80
2023-01-10T19:25:15.277Z,16.53
2023-01-10T19:27:43.218Z,16.13
2023-01-10T19:30:12.361Z,18.80
2023-01-10T19:32:40.801Z,18.37
2023-01-10T19:35:09.357Z,16.87
2023-01-10T19:37:38.664Z,13.83
2023-01-10T19:40:07.792Z,14.93
2023-01-10T19:42:37.522Z,17.83
2023-01-10T19:45:06.366Z,16.93
2023-01-10T19:47:34.235Z,14.17
2023-01-10T19:50:02.072Z,15.67
2023-01-10T19:52:30.129Z,14.20
2023-01-10T19:54:59.340Z,13.87
2023-01-10T19:57:27.194Z,17.53
2023-01-10T19:59:56.734Z,11.77
2023-01-10T20:02:25.509Z,13.77
2023-01-10T20:04:53.725Z,11.83
2023-01-10T20:07:21.594Z,15.80
2023-01-10T20:09:49.742Z,12.93
2023-01-10T20:12:18.964Z,12.73
2023-01-10T20:14:47.014Z,15.03
2023-01-10T20:17:14.854Z,11.90
2023-01-10T20:19:42.957Z,9.40
2023-01-10T20:22:11.148Z,12.40
2023-01-10T20:24:39.150Z,15.00
2023-01-10T20:27:09.452Z,11.97
2023-01-10T20:29:40.853Z,11.37
2023-01-10T20:32:08.742Z,13.93
2023-01-10T20:34:36.664Z,15.50
2023-01-10T20:37:04.619Z,12.47
2023-01-10T20:39:32.997Z,12.60
2023-01-10T20:42:00.964Z,17.30
2023-01-10T20:44:31.121Z,10.67
2023-01-10T20:47:00.333Z,14.00
2023-01-10T20:49:28.267Z,14.17
2023-01-10T20:51:56.345Z,13.07
2023-01-10T20:54:25.482Z,10.17
2023-01-10T20:56:53.466Z,13.63
2023-01-10T20:59:21.483Z,11.53
2023-01-10T21:01:49.358Z,14.47
2023-01-10T21:04:18.881Z,13.07
2023-01-10T21:06:47.072Z,15.40
2023-01-10T21:09:16.630Z,13.83
2023-01-10T21:11:59.862Z,18.93
2023-01-10T21:14:32.526Z,16.93
2023-01-10T21:17:00.376Z,10.47
2023-01-10T21:19:29.598Z,13.17
2023-01-10T21:21:57.762Z,12.63
2023-01-10T21:24:26.665Z,13.57
2023-01-10T21:26:54.937Z,10.37
2023-01-10T21:29:22.918Z,11.30
2023-01-10T21:31:52.743Z,10.70
2023-01-10T21:34:20.997Z,11.23
2023-01-10T21:36:51.466Z,10.90
2023-01-10T21:39:19.499Z,10.57
2023-01-10T21:42:04.680Z,11.70
2023-01-10T21:44:32.613Z,12.00
2023-01-10T21:47:00.535Z,9.37
2023-01-10T21:49:28.521Z,10.33
2023-01-10T21:51:57.874Z,13.10
2023-01-10T21:54:26.366Z,12.37
2023-01-10T21:56:54.402Z,12.47
2023-01-10T21:59:25.681Z,12.93
2023-01-10T22:01:53.559Z,11.30
2023-01-10T22:04:21.740Z,9.90
2023-01-10T22:06:50.043Z,13.07
2023-01-10T22:09:19.498Z,12.93
2023-01-10T22:11:47.561Z,10.43
2023-01-10T22:14:15.486Z,11.80
2023-01-10T22:16:43.387Z,14.27
2023-01-10T22:19:11.554Z,15.03
2023-01-10T22:21:39.659Z,11.03
2023-01-10T22:24:08.320Z,12.40
2023-01-10T22:26:38.071Z,12.87
2023-01-10T22:29:06.126Z,10.23
2023-01-10T22:31:34.361Z,15.70
2023-01-10T22:34:02.439Z,14.93
2023-01-10T22:36:30.443Z,12.60
2023-01-10T22:38:58.323Z,11.40
2023-01-10T22:41:27.496Z,11.97
2023-01-10T22:43:57.111Z,12.50
2023-01-10T22:46:25.290Z,10.43
2023-01-10T22:48:54.075Z,10.07
2023-01-10T22:51:23.081Z,12.63
2023-01-10T22:53:52.095Z,13.20
2023-01-10T22:56:20.480Z,14.77
2023-01-10T22:58:48.942Z,9.53
2023-01-10T23:01:20.608Z,14.60
2023-01-10T23:03:49.295Z,10.87
2023-01-10T23:06:18.063Z,10.10
2023-01-10T23:08:47.851Z,10.30
2023-01-10T23:11:20.367Z,11.00
2023-01-10T23:13:49.263Z,9.40
2023-01-10T23:16:22.028Z,11.97
2023-01-10T23:18:51.003Z,11.23
2023-01-10T23:21:19.279Z,11.23
2023-01-10T23:23:47.828Z,10.23
2023-01-10T23:26:15.953Z,12.67
2023-01-10T23:28:47.822Z,10.80
2023-01-10T23:31:17.521Z,7.83
2023-01-10T23:33:47.164Z,9.30
2023-01-10T23:36:16.123Z,11.57
2023-01-10T23:38:44.865Z,8.67
2023-01-10T23:41:12.942Z,7.33
2023-01-10T23:43:40.947Z,9.57
2023-01-10T23:46:09.733Z,9.70
2023-01-10T23:48:37.822Z,7.10
2023-01-10T23:51:07.849Z,7.23
2023-01-10T23:53:35.837Z,8.97
2023-01-10T23:56:07.734Z,8.27
2023-01-10T23:58:35.619Z,11.13
